Appleton, Illinois
Current Conditions -  °F | °C
As of 4:55 PM on Saturday 20 Dec 2014 (Local Time) from KGBG Reporting Station
Overcast Overcast  
Wind Chill: 34°   Ceiling: 1800
Heat Index: 34°   Visibility: 7mi
Dew Point: 30°   Wind: 3mph
Humidity: 87%   Direction: 130°SE
Pressure: 30.21"   Gusts: NA
Location:  40.9602°N, 90.1517°W
Report Text: KGBG 202255Z AUTO 13003KT 7SM BKN018 BKN029 OVC033 01/M01 A3021 RMK AO2 T00101010
Loading
Personal Weather Stations






























Interactive Weather Map New forecast layout! Learn more

10-Day Weather Forecast

Advertisements
Track Severe Weather on mobile